Time;durP1;ratioP1;P1;durP2;ratioP2;P2;SDS_P1;SDS_P2;PMS_P1;PMS_P2;Temp;Humidity;BMP_temperature;BMP_pressure;BME280_temperature;BME280_humidity;BME280_pressure;Samples;Min_cycle;Max_cycle;Signal;HPM_P1;HPM_P2
2021/06/02 00:01:23;;;;;;;3.10;2.90;;;18.20;77.30;;;;;;5035241;28;20464;-74
2021/06/02 00:03:50;;;;;;;3.50;2.93;;;18.30;77.50;;;;;;5054416;28;20221;-74
2021/06/02 00:06:16;;;;;;;3.20;2.93;;;18.20;77.40;;;;;;5025641;28;20926;-74
2021/06/02 00:08:43;;;;;;;2.93;2.73;;;18.30;77.50;;;;;;5021732;28;20876;-73
2021/06/02 00:11:09;;;;;;;3.73;3.30;;;18.10;77.40;;;;;;5007000;28;20463;-73
2021/06/02 00:13:35;;;;;;;3.43;3.13;;;18.10;77.50;;;;;;5057889;28;20992;-74
2021/06/02 00:16:03;;;;;;;3.27;3.07;;;18.20;77.50;;;;;;5004995;28;20500;-74
2021/06/02 00:18:28;;;;;;;4.00;3.57;;;18.20;77.50;;;;;;5034235;28;20587;-74
2021/06/02 00:20:55;;;;;;;3.77;3.30;;;18.10;77.50;;;;;;5004602;28;20453;-73
2021/06/02 00:23:21;;;;;;;3.90;3.60;;;18.10;77.60;;;;;;5036941;28;20781;-74
2021/06/02 00:25:48;;;;;;;6.80;5.57;;;18.10;77.60;;;;;;5025970;28;20980;-74
2021/06/02 00:28:15;;;;;;;4.13;3.20;;;18.10;77.70;;;;;;5022462;28;20484;-74
2021/06/02 00:30:43;;;;;;;3.30;3.10;;;18.00;77.70;;;;;;5028237;28;20542;-73
2021/06/02 00:33:10;;;;;;;3.23;3.00;;;18.00;77.80;;;;;;5042123;28;20452;-73
2021/06/02 00:35:37;;;;;;;3.40;3.20;;;17.90;78.70;;;;;;5005298;28;20451;-73
2021/06/02 00:38:04;;;;;;;3.40;3.10;;;17.90;77.90;;;;;;5034050;28;20999;-73
2021/06/02 00:40:42;;;;;;;3.97;3.67;;;17.80;78.00;;;;;;5035726;28;20857;-74
2021/06/02 00:43:08;;;;;;;3.90;2.90;;;17.70;78.20;;;;;;5037182;28;20461;-74
2021/06/02 00:45:34;;;;;;;4.63;3.60;;;17.70;78.30;;;;;;5035207;28;20539;-73
2021/06/02 00:48:04;;;;;;;3.83;2.83;;;17.80;78.30;;;;;;5006811;28;20263;-73
2021/06/02 00:50:30;;;;;;;3.53;3.23;;;17.80;78.20;;;;;;5024654;28;20590;-74
2021/06/02 00:52:56;;;;;;;3.20;2.90;;;17.80;78.30;;;;;;5039995;28;20864;-74
2021/06/02 00:55:22;;;;;;;3.53;3.30;;;17.80;78.20;;;;;;5003044;28;20453;-74
2021/06/02 00:57:53;;;;;;;4.20;3.90;;;17.70;78.20;;;;;;5019514;28;20301;-73
2021/06/02 01:00:20;;;;;;;3.60;3.30;;;17.60;78.40;;;;;;5037611;28;20472;-74
2021/06/02 01:02:51;;;;;;;3.73;3.30;;;17.60;78.40;;;;;;5036440;28;20465;-73
2021/06/02 01:05:21;;;;;;;3.80;3.40;;;17.50;78.60;;;;;;5021733;28;20976;-73
2021/06/02 01:07:53;;;;;;;5.27;3.27;;;17.50;78.80;;;;;;4987864;28;20468;-73
2021/06/02 01:10:20;;;;;;;5.10;4.03;;;17.50;78.90;;;;;;5039313;28;20486;-73
2021/06/02 01:12:50;;;;;;;3.60;3.30;;;17.40;78.80;;;;;;5023835;28;20517;-73
2021/06/02 01:15:19;;;;;;;4.30;3.90;;;17.40;79.20;;;;;;5021771;28;20474;-73
2021/06/02 01:17:45;;;;;;;3.67;3.37;;;17.40;79.10;;;;;;5055930;28;20916;-73
2021/06/02 01:20:12;;;;;;;3.70;3.40;;;17.40;79.00;;;;;;5041344;28;20529;-74
2021/06/02 01:22:39;;;;;;;3.97;3.57;;;17.30;79.30;;;;;;5054531;28;20459;-74
2021/06/02 01:25:12;;;;;;;4.43;3.80;;;17.30;79.10;;;;;;5073314;28;20459;-74
2021/06/02 01:27:38;;;;;;;4.47;3.63;;;17.30;79.70;;;;;;5041790;28;20464;-73
2021/06/02 01:30:14;;;;;;;4.13;3.53;;;17.20;79.50;;;;;;5058736;28;20461;-73
2021/06/02 01:32:52;;;;;;;4.10;3.30;;;17.20;79.60;;;;;;5039315;28;20482;-72
2021/06/02 01:35:54;;;;;;;5.73;3.80;;;17.20;79.60;;;;;;5063358;28;20539;-73
2021/06/02 01:38:35;;;;;;;3.73;3.43;;;17.20;79.60;;;;;;5056388;28;20462;-74
2021/06/02 01:41:29;;;;;;;4.70;3.43;;;17.20;79.50;;;;;;5059420;28;20462;-74
2021/06/02 01:44:30;;;;;;;4.00;3.63;;;17.10;79.50;;;;;;5039865;28;20439;-73
2021/06/02 01:47:24;;;;;;;3.40;3.20;;;17.00;80.10;;;;;;5027922;28;20455;-74
2021/06/02 01:49:52;;;;;;;3.83;3.37;;;16.80;80.60;;;;;;5015946;28;20542;-72
2021/06/02 01:52:33;;;;;;;3.43;3.13;;;16.90;80.40;;;;;;5057852;28;20459;-74
2021/06/02 01:55:14;;;;;;;3.60;3.27;;;16.90;80.40;;;;;;5059259;28;20456;-73
2021/06/02 01:58:04;;;;;;;3.97;3.40;;;16.90;80.40;;;;;;5023520;28;20469;-73
2021/06/02 02:00:51;;;;;;;3.90;3.60;;;16.70;80.60;;;;;;5040907;28;20447;-73
2021/06/02 02:03:19;;;;;;;3.83;3.50;;;16.60;80.70;;;;;;5060609;28;20455;-74
2021/06/02 02:06:04;;;;;;;3.20;3.00;;;16.60;80.80;;;;;;5040317;28;20478;-73
2021/06/02 02:08:46;;;;;;;3.43;3.10;;;16.70;81.00;;;;;;5080558;28;20439;-73
2021/06/02 02:11:34;;;;;;;3.77;3.33;;;16.70;80.90;;;;;;5044705;28;20453;-73
2021/06/02 02:14:02;;;;;;;3.33;3.03;;;16.70;80.80;;;;;;5030311;28;20578;-73
2021/06/02 02:17:06;;;;;;;3.80;3.50;;;16.70;80.90;;;;;;5047942;28;20455;-73
2021/06/02 02:19:53;;;;;;;3.80;3.50;;;16.70;80.80;;;;;;5043563;28;20470;-74
2021/06/02 02:22:33;;;;;;;6.10;4.03;;;16.70;80.60;;;;;;5058282;28;20463;-73
2021/06/02 02:25:07;;;;;;;4.23;3.23;;;16.70;80.60;;;;;;5045196;28;20463;-74
2021/06/02 02:28:10;;;;;;;3.63;3.33;;;16.70;80.80;;;;;;5032747;28;21203;-73
2021/06/02 02:30:47;;;;;;;5.27;3.40;;;16.60;80.80;;;;;;5063090;28;20821;-73
2021/06/02 02:33:31;;;;;;;4.13;2.90;;;16.60;80.90;;;;;;5073624;28;20491;-73
2021/06/02 02:35:56;;;;;;;4.47;3.73;;;16.60;80.90;;;;;;5044679;28;20555;-73
2021/06/02 02:38:38;;;;;;;3.87;3.57;;;16.60;81.30;;;;;;5039230;28;20544;-73
2021/06/02 02:41:25;;;;;;;3.33;3.03;;;16.50;81.50;;;;;;5078112;28;20262;-73
2021/06/02 02:44:01;;;;;;;3.37;3.00;;;16.30;82.00;;;;;;5060814;28;20979;-73
2021/06/02 02:46:38;;;;;;;8.57;4.00;;;16.30;82.10;;;;;;5052423;28;21000;-73
2021/06/02 02:49:19;;;;;;;4.10;2.80;;;16.20;82.40;;;;;;5059023;28;20846;-73
2021/06/02 02:51:56;;;;;;;3.90;3.50;;;16.30;82.30;;;;;;5026367;28;20505;-73
2021/06/02 02:54:35;;;;;;;3.47;3.07;;;16.30;82.10;;;;;;5044572;28;20483;-73
2021/06/02 02:57:27;;;;;;;5.33;3.10;;;16.20;82.30;;;;;;5064295;28;20463;-73
2021/06/02 03:00:04;;;;;;;3.50;3.20;;;16.30;82.40;;;;;;5045938;28;20457;-73
2021/06/02 03:02:54;;;;;;;4.90;3.13;;;16.30;82.20;;;;;;5061939;28;20980;-74
2021/06/02 03:05:28;;;;;;;6.53;3.63;;;16.30;82.20;;;;;;5029763;28;20468;-73
2021/06/02 03:08:26;;;;;;;6.00;5.07;;;16.30;82.30;;;;;;5060869;28;20857;-74
2021/06/02 03:11:06;;;;;;;4.23;3.20;;;16.20;82.20;;;;;;5035397;28;20509;-73
2021/06/02 03:13:58;;;;;;;3.80;3.30;;;16.20;82.60;;;;;;5046956;28;20484;-73
2021/06/02 03:16:30;;;;;;;4.60;3.00;;;16.10;82.60;;;;;;5008277;28;20471;-73
2021/06/02 03:19:17;;;;;;;3.50;3.20;;;16.10;83.00;;;;;;5055914;28;20454;-74
2021/06/02 03:21:58;;;;;;;3.50;3.20;;;16.00;82.90;;;;;;5010797;28;20960;-74
2021/06/02 03:24:49;;;;;;;3.43;2.93;;;16.00;82.70;;;;;;5055025;28;20494;-73
2021/06/02 03:27:26;;;;;;;3.37;2.97;;;16.00;82.90;;;;;;5040615;28;20470;-74
2021/06/02 03:29:54;;;;;;;3.20;2.90;;;16.00;83.10;;;;;;5040950;28;20463;-74
2021/06/02 03:32:58;;;;;;;4.00;3.07;;;16.00;83.30;;;;;;5034533;28;21135;-73
2021/06/02 03:35:37;;;;;;;3.87;3.13;;;15.90;83.40;;;;;;5020232;28;20540;-73
2021/06/02 03:38:38;;;;;;;4.17;3.77;;;15.80;83.40;;;;;;5037312;28;20456;-74
2021/06/02 03:41:34;;;;;;;3.80;3.40;;;15.80;83.60;;;;;;4991702;28;20584;-73
2021/06/02 03:44:27;;;;;;;4.17;3.47;;;15.80;83.70;;;;;;4993149;28;20491;-74
2021/06/02 03:47:26;;;;;;;3.50;3.20;;;15.80;83.60;;;;;;5040108;28;20532;-73
2021/06/02 03:50:05;;;;;;;3.97;3.60;;;15.80;83.60;;;;;;4990058;28;20464;-73
2021/06/02 03:52:48;;;;;;;3.43;3.13;;;15.80;83.80;;;;;;5079058;28;20521;-73
2021/06/02 03:55:32;;;;;;;4.00;3.70;;;15.70;83.90;;;;;;5074858;28;20844;-73
2021/06/02 03:58:35;;;;;;;3.53;3.23;;;15.70;84.00;;;;;;5078764;28;20621;-73
2021/06/02 04:01:20;;;;;;;3.50;3.20;;;15.80;84.80;;;;;;5053080;28;20463;-73
2021/06/02 04:03:56;;;;;;;3.60;3.30;;;15.80;84.20;;;;;;5056508;28;20951;-73
2021/06/02 04:06:42;;;;;;;5.03;3.47;;;15.70;84.10;;;;;;5039986;28;20559;-73
2021/06/02 04:09:12;;;;;;;5.17;3.50;;;15.70;84.10;;;;;;5007057;28;20839;-73
2021/06/02 04:11:50;;;;;;;4.57;3.40;;;15.70;84.20;;;;;;5037411;28;20463;-73
2021/06/02 04:14:50;;;;;;;3.80;3.40;;;15.50;86.20;;;;;;5069366;28;20447;-72
2021/06/02 04:17:16;;;;;;;6.83;3.03;;;15.50;85.60;;;;;;5036757;28;20495;-73
2021/06/02 04:19:43;;;;;;;3.17;2.87;;;15.50;85.90;;;;;;5050885;28;20472;-73
2021/06/02 04:22:10;;;;;;;3.50;3.03;;;15.50;84.90;;;;;;5027681;28;20457;-73
2021/06/02 04:24:38;;;;;;;3.10;2.87;;;15.50;86.30;;;;;;5025128;28;20448;-73
2021/06/02 04:27:04;;;;;;;3.50;3.20;;;15.50;86.30;;;;;;5072109;28;20456;-73
2021/06/02 04:29:31;;;;;;;3.87;3.23;;;15.60;85.80;;;;;;5057599;28;20548;-73
2021/06/02 04:32:06;;;;;;;4.13;3.47;;;15.60;85.90;;;;;;5042795;28;20455;-73
2021/06/02 04:34:32;;;;;;;2.93;2.73;;;15.60;86.30;;;;;;5061017;28;20467;-73
2021/06/02 04:37:02;;;;;;;4.47;3.33;;;15.60;85.70;;;;;;5059667;28;20885;-73
2021/06/02 04:39:29;;;;;;;4.13;3.73;;;15.70;86.10;;;;;;5076320;28;20466;-73
2021/06/02 04:41:58;;;;;;;3.63;2.90;;;15.70;85.90;;;;;;5061668;28;20463;-72
2021/06/02 04:44:25;;;;;;;3.67;3.37;;;15.70;85.90;;;;;;5035497;28;20466;-73
2021/06/02 04:46:51;;;;;;;3.70;2.90;;;15.70;86.00;;;;;;5073081;28;20581;-73
2021/06/02 04:49:18;;;;;;;3.83;3.33;;;15.80;86.60;;;;;;5031757;28;20574;-73
2021/06/02 04:52:05;;;;;;;3.60;2.80;;;15.80;86.60;;;;;;5058014;28;20488;-73
2021/06/02 04:55:04;;;;;;;5.87;3.67;;;15.80;86.30;;;;;;5073518;28;21044;-72
2021/06/02 04:57:47;;;;;;;3.37;3.00;;;15.90;86.70;;;;;;5030577;28;20470;-73
2021/06/02 05:00:19;;;;;;;3.70;3.40;;;15.90;87.00;;;;;;5018422;28;20453;-73
2021/06/02 05:03:07;;;;;;;4.10;3.50;;;15.90;87.00;;;;;;5079610;28;20479;-73
2021/06/02 05:05:40;;;;;;;5.70;5.20;;;16.00;86.90;;;;;;5026344;28;20467;-72
2021/06/02 05:08:26;;;;;;;3.90;3.53;;;15.90;86.70;;;;;;5011497;28;20474;-73
2021/06/02 05:11:10;;;;;;;4.97;3.90;;;16.00;86.60;;;;;;5026552;28;21001;-72
2021/06/02 05:14:22;;;;;;;3.67;3.37;;;16.00;87.30;;;;;;5021901;28;20536;-73
2021/06/02 05:17:06;;;;;;;7.73;3.60;;;16.00;87.50;;;;;;4981812;28;20476;-73
2021/06/02 05:20:24;;;;;;;3.13;2.80;;;16.00;87.60;;;;;;5040362;28;20466;-73
2021/06/02 05:23:14;;;;;;;3.50;3.20;;;16.00;87.80;;;;;;5013394;28;20451;-73
2021/06/02 05:26:37;;;;;;;3.43;3.03;;;16.10;87.00;;;;;;5065586;28;20821;-73
2021/06/02 05:29:32;;;;;;;5.17;4.67;;;16.10;87.10;;;;;;5011275;28;20443;-73
2021/06/02 05:32:27;;;;;;;3.23;2.93;;;16.10;88.30;;;;;;5018661;28;20510;-73
2021/06/02 05:35:15;;;;;;;2.80;2.60;;;16.20;87.60;;;;;;5000936;28;20559;-73
2021/06/02 05:37:55;;;;;;;4.00;3.57;;;16.20;87.20;;;;;;5059773;28;20472;-73
2021/06/02 05:40:47;;;;;;;4.00;3.60;;;16.30;87.70;;;;;;5014169;28;20535;-73
2021/06/02 05:43:29;;;;;;;4.17;3.23;;;16.30;88.30;;;;;;5046205;28;20535;-73
2021/06/02 05:46:16;;;;;;;3.90;3.60;;;16.40;87.90;;;;;;5013749;28;20459;-73
2021/06/02 05:49:06;;;;;;;4.00;3.50;;;16.40;89.30;;;;;;5066097;28;20457;-73
2021/06/02 05:51:50;;;;;;;3.10;2.80;;;16.50;89.90;;;;;;5094344;28;20462;-73
2021/06/02 05:54:43;;;;;;;3.80;3.50;;;16.60;89.20;;;;;;5063828;28;20886;-73
2021/06/02 05:57:57;;;;;;;3.60;2.80;;;16.60;89.70;;;;;;5033015;28;20471;-73
2021/06/02 06:00:59;;;;;;;3.37;3.07;;;16.70;89.80;;;;;;5016560;28;20823;-73
2021/06/02 06:03:43;;;;;;;3.27;3.00;;;16.80;90.10;;;;;;5033745;28;20518;-73
2021/06/02 06:06:40;;;;;;;7.33;2.90;;;16.90;90.10;;;;;;5049707;28;20508;-73
2021/06/02 06:09:27;;;;;;;4.57;3.27;;;17.00;90.00;;;;;;5065799;28;20435;-73
2021/06/02 06:12:12;;;;;;;3.83;3.53;;;17.00;90.30;;;;;;5034168;28;20537;-73
2021/06/02 06:15:11;;;;;;;3.30;3.00;;;17.10;90.20;;;;;;5082673;28;20523;-73
2021/06/02 06:17:58;;;;;;;4.10;3.23;;;17.20;90.10;;;;;;5032580;28;20487;-73
2021/06/02 06:24:18;;;;;;;4.80;4.07;;;17.30;90.50;;;;;;5053459;28;20457;-73
2021/06/02 06:27:05;;;;;;;4.70;4.30;;;17.40;91.00;;;;;;5102902;28;20454;-73
2021/06/02 06:29:37;;;;;;;5.03;4.00;;;17.50;91.10;;;;;;5066810;28;20450;-73
2021/06/02 06:32:05;;;;;;;9.73;3.73;;;17.60;91.30;;;;;;5050917;28;20526;-73
2021/06/02 06:34:34;;;;;;;4.17;3.77;;;17.70;91.50;;;;;;5045085;28;20452;-73
2021/06/02 06:37:02;;;;;;;4.63;3.53;;;17.80;91.40;;;;;;5062189;28;20480;-73
2021/06/02 06:39:49;;;;;;;4.30;3.70;;;17.90;91.30;;;;;;5061371;28;20464;-73
2021/06/02 06:42:20;;;;;;;3.53;3.13;;;18.00;91.50;;;;;;5028318;28;20460;-73
2021/06/02 06:44:47;;;;;;;5.00;4.27;;;18.10;91.50;;;;;;5045473;28;20468;-73
2021/06/02 06:47:15;;;;;;;4.20;3.77;;;18.30;91.70;;;;;;5028518;28;20456;-73
2021/06/02 06:49:46;;;;;;;8.50;4.70;;;18.30;91.50;;;;;;4995635;28;20468;-73
2021/06/02 06:52:13;;;;;;;6.83;4.10;;;18.40;91.70;;;;;;5027370;28;20964;-73
2021/06/02 06:54:40;;;;;;;5.13;4.03;;;18.40;91.80;;;;;;5011994;28;20495;-73
2021/06/02 06:57:07;;;;;;;5.40;4.00;;;18.50;91.70;;;;;;5008402;28;20509;-73
2021/06/02 06:59:33;;;;;;;4.63;4.00;;;18.60;91.70;;;;;;5006894;28;20522;-73
2021/06/02 07:01:59;;;;;;;4.13;3.60;;;18.70;91.80;;;;;;5009842;28;20464;-73
2021/06/02 07:04:27;;;;;;;3.90;3.60;;;18.70;91.70;;;;;;5055708;28;20451;-73
2021/06/02 07:06:55;;;;;;;4.83;4.07;;;18.80;91.70;;;;;;5012057;28;20527;-73
2021/06/02 07:09:22;;;;;;;4.47;4.07;;;18.90;91.70;;;;;;5011407;28;20460;-73
2021/06/02 07:11:48;;;;;;;4.43;4.00;;;19.00;91.80;;;;;;5013269;28;20479;-73
2021/06/02 07:14:25;;;;;;;4.33;3.90;;;19.10;91.80;;;;;;5011439;28;20479;-73
2021/06/02 07:16:53;;;;;;;5.07;4.00;;;19.20;91.90;;;;;;5041589;28;21019;-73
2021/06/02 07:19:22;;;;;;;5.00;4.10;;;19.30;91.90;;;;;;5040781;28;20453;-73
2021/06/02 07:21:50;;;;;;;4.50;3.50;;;19.40;91.90;;;;;;5045253;28;20553;-73
2021/06/02 07:24:20;;;;;;;4.63;3.77;;;19.50;92.10;;;;;;5026730;28;20830;-73
2021/06/02 07:26:47;;;;;;;4.53;4.13;;;19.60;92.00;;;;;;5007704;28;20523;-73
2021/06/02 07:29:14;;;;;;;4.03;3.57;;;19.70;92.00;;;;;;5026788;28;20448;-73
2021/06/02 07:31:40;;;;;;;3.30;2.90;;;19.80;92.10;;;;;;5011433;28;20826;-73
2021/06/02 07:34:06;;;;;;;3.73;3.43;;;19.90;92.10;;;;;;5010664;28;20448;-74
2021/06/02 07:36:32;;;;;;;3.77;3.40;;;20.00;92.00;;;;;;5043787;28;20503;-74
2021/06/02 07:38:59;;;;;;;4.30;4.00;;;20.10;91.90;;;;;;5027833;28;20986;-73
2021/06/02 07:41:25;;;;;;;5.20;3.70;;;20.20;91.50;;;;;;5006418;28;20559;-73
2021/06/02 07:43:51;;;;;;;3.77;3.40;;;20.30;91.60;;;;;;4995711;28;20845;-73
2021/06/02 07:46:53;;;;;;;3.93;3.63;;;20.40;91.60;;;;;;5009910;28;20252;-73
2021/06/02 07:49:19;;;;;;;5.80;3.60;;;20.50;91.50;;;;;;5037084;28;20303;-73
2021/06/02 07:51:51;;;;;;;4.70;3.67;;;20.60;91.40;;;;;;5027462;28;20538;-73
2021/06/02 07:54:17;;;;;;;4.53;3.70;;;20.60;91.10;;;;;;5026107;28;20225;-74
2021/06/02 07:56:42;;;;;;;3.87;3.57;;;20.70;91.30;;;;;;5012199;28;20517;-74
2021/06/02 07:59:08;;;;;;;3.13;2.93;;;20.90;91.30;;;;;;5044144;28;20555;-74
2021/06/02 08:01:34;;;;;;;3.83;3.53;;;21.00;91.30;;;;;;5037702;28;20372;-74
2021/06/02 08:03:59;;;;;;;4.00;3.60;;;21.10;91.20;;;;;;5010123;28;20700;-74
2021/06/02 08:06:25;;;;;;;4.00;3.23;;;21.20;91.10;;;;;;4994900;28;20228;-74
2021/06/02 08:08:51;;;;;;;5.10;3.10;;;21.20;91.00;;;;;;5081220;28;20707;-74
2021/06/02 08:11:16;;;;;;;3.20;2.90;;;21.30;90.50;;;;;;5066250;28;20755;-74
2021/06/02 08:13:42;;;;;;;3.10;2.80;;;21.40;89.30;;;;;;5074285;28;20240;-74
2021/06/02 08:16:08;;;;;;;3.50;3.13;;;21.50;89.00;;;;;;5053384;28;20230;-74
2021/06/02 08:18:33;;;;;;;3.73;3.53;;;21.60;89.50;;;;;;5054446;28;20227;-74
2021/06/02 08:21:07;;;;;;;3.87;2.90;;;21.70;88.00;;;;;;5048233;28;20735;-74
2021/06/02 08:23:33;;;;;;;7.13;2.87;;;21.90;86.90;;;;;;5046558;28;20215;-74
2021/06/02 08:25:59;;;;;;;2.93;2.73;;;22.00;87.20;;;;;;5050282;28;20450;-74
2021/06/02 08:28:25;;;;;;;3.80;2.97;;;22.10;87.10;;;;;;5046812;28;20583;-74
2021/06/02 08:31:19;;;;;;;3.43;3.13;;;22.20;86.50;;;;;;5035285;28;20225;-75
2021/06/02 08:33:44;;;;;;;4.93;2.90;;;22.30;86.20;;;;;;5071273;28;20451;-76
2021/06/02 08:36:10;;;;;;;4.83;3.30;;;22.40;85.30;;;;;;5046530;28;21018;-74
2021/06/02 08:38:36;;;;;;;2.77;2.53;;;22.60;85.50;;;;;;5062736;28;20224;-74
2021/06/02 08:41:05;;;;;;;4.03;2.80;;;22.80;84.30;;;;;;5046579;28;20538;-74
2021/06/02 08:43:31;;;;;;;3.53;3.00;;;22.90;84.80;;;;;;5062692;28;20216;-74
2021/06/02 08:45:57;;;;;;;4.73;3.40;;;23.00;84.60;;;;;;5063079;28;20534;-74
2021/06/02 08:48:23;;;;;;;4.27;3.33;;;23.10;84.10;;;;;;5009683;28;20895;-74
2021/06/02 08:50:49;;;;;;;3.37;3.07;;;23.20;83.90;;;;;;5057903;28;20223;-74
2021/06/02 08:53:19;;;;;;;2.80;2.60;;;23.20;82.90;;;;;;5058619;28;20456;-74
2021/06/02 08:55:46;;;;;;;3.27;2.97;;;23.40;82.80;;;;;;5026485;28;20227;-74
2021/06/02 08:58:22;;;;;;;4.10;3.07;;;23.60;82.00;;;;;;5080026;28;20459;-74
2021/06/02 09:00:49;;;;;;;4.00;3.53;;;23.70;82.80;;;;;;5072001;28;21122;-74
2021/06/02 09:03:15;;;;;;;4.80;3.07;;;23.70;82.20;;;;;;5074603;28;20537;-74
2021/06/02 09:05:41;;;;;;;3.30;3.10;;;23.80;82.30;;;;;;5087589;28;20918;-74
2021/06/02 09:08:12;;;;;;;3.50;2.83;;;23.90;81.90;;;;;;5082803;28;20493;-74
2021/06/02 09:10:40;;;;;;;3.43;3.13;;;24.10;81.00;;;;;;5057078;28;20230;-74
2021/06/02 09:13:19;;;;;;;3.50;3.20;;;24.30;80.50;;;;;;5041221;28;20450;-74
2021/06/02 09:15:47;;;;;;;3.00;2.80;;;24.30;80.80;;;;;;5031126;28;20457;-74
2021/06/02 09:18:21;;;;;;;3.93;2.87;;;24.20;80.40;;;;;;5074765;28;21051;-74
2021/06/02 09:20:48;;;;;;;5.47;2.90;;;24.20;78.70;;;;;;5064149;28;20446;-74
2021/06/02 09:23:36;;;;;;;3.30;3.00;;;24.30;79.20;;;;;;5048894;28;20464;-74
2021/06/02 09:26:11;;;;;;;3.07;2.77;;;24.50;78.70;;;;;;5065550;28;20496;-74
2021/06/02 09:28:51;;;;;;;2.53;2.33;;;24.70;78.20;;;;;;5064713;28;25531;-74
2021/06/02 09:31:26;;;;;;;4.67;2.63;;;24.80;76.60;;;;;;5057910;28;20476;-74
2021/06/02 09:34:14;;;;;;;3.13;2.93;;;24.80;75.70;;;;;;5067391;28;20457;-74
2021/06/02 09:36:42;;;;;;;6.03;2.57;;;25.00;75.50;;;;;;5091675;28;20455;-74
2021/06/02 09:39:23;;;;;;;3.13;2.93;;;25.10;74.60;;;;;;5064046;28;20942;-74
2021/06/02 09:42:02;;;;;;;2.80;2.60;;;25.20;74.70;;;;;;5062009;28;20458;-74
2021/06/02 09:44:30;;;;;;;3.03;2.40;;;25.20;73.70;;;;;;5042435;28;20805;-74
2021/06/02 09:46:59;;;;;;;2.90;2.70;;;25.30;74.40;;;;;;5055250;28;20468;-74
2021/06/02 09:49:26;;;;;;;3.30;3.00;;;25.50;71.80;;;;;;5059041;28;20510;-74
2021/06/02 09:51:53;;;;;;;3.10;2.83;;;25.50;72.50;;;;;;5050937;28;20828;-74
2021/06/02 09:54:23;;;;;;;2.80;2.60;;;25.60;71.80;;;;;;5034364;28;20471;-74
2021/06/02 09:56:50;;;;;;;3.03;2.83;;;25.60;72.60;;;;;;5052266;28;20836;-74
2021/06/02 09:59:16;;;;;;;2.80;2.60;;;26.00;69.40;;;;;;5044221;28;20491;-74
2021/06/02 10:01:54;;;;;;;3.00;2.80;;;26.00;70.50;;;;;;5056174;28;20434;-74
2021/06/02 10:04:28;;;;;;;3.20;2.83;;;26.00;69.60;;;;;;5021403;28;20452;-74
2021/06/02 10:06:53;;;;;;;3.10;2.90;;;26.20;68.90;;;;;;5051315;28;20457;-74
2021/06/02 10:09:37;;;;;;;2.70;2.50;;;26.20;67.70;;;;;;5012890;28;20447;-74
2021/06/02 10:12:04;;;;;;;4.23;2.63;;;26.20;67.30;;;;;;5022683;28;20221;-74
2021/06/02 10:14:31;;;;;;;2.47;2.37;;;26.30;66.20;;;;;;5021779;28;20985;-74
2021/06/02 10:16:58;;;;;;;3.40;2.90;;;26.50;65.40;;;;;;5023879;28;20494;-74
2021/06/02 10:19:36;;;;;;;3.00;2.70;;;26.50;66.10;;;;;;5005883;28;20464;-74
2021/06/02 10:22:23;;;;;;;4.23;3.20;;;26.40;65.50;;;;;;5035248;28;20451;-74
2021/06/02 10:24:50;;;;;;;3.73;3.50;;;26.50;67.00;;;;;;5014662;28;20466;-74
2021/06/02 10:27:18;;;;;;;2.93;2.73;;;26.60;67.40;;;;;;5053258;28;21243;-74
2021/06/02 10:29:44;;;;;;;3.03;2.83;;;26.80;65.10;;;;;;5060372;28;20454;-74
2021/06/02 10:32:10;;;;;;;2.93;2.73;;;27.00;63.50;;;;;;5031637;28;20569;-74
2021/06/02 10:34:36;;;;;;;2.70;2.53;;;27.10;62.40;;;;;;5031283;28;20529;-74
2021/06/02 10:37:02;;;;;;;2.30;2.20;;;27.20;62.10;;;;;;5059219;28;20231;-74
2021/06/02 10:39:31;;;;;;;2.83;2.63;;;27.30;60.40;;;;;;5031143;28;20216;-74
2021/06/02 10:42:03;;;;;;;3.17;2.33;;;27.40;60.40;;;;;;5048596;28;20630;-74
2021/06/02 10:44:36;;;;;;;2.80;2.60;;;27.40;59.80;;;;;;5058016;28;20470;-74
2021/06/02 10:47:03;;;;;;;3.00;2.80;;;27.40;60.50;;;;;;5027050;28;20454;-74
2021/06/02 10:49:36;;;;;;;2.80;2.60;;;27.40;61.40;;;;;;5044491;28;20505;-74
2021/06/02 10:52:04;;;;;;;3.90;2.87;;;27.50;60.50;;;;;;5058215;28;20447;-74
2021/06/02 10:54:40;;;;;;;3.13;2.93;;;27.70;59.80;;;;;;5029065;28;20212;-74
2021/06/02 10:57:10;;;;;;;2.70;2.50;;;27.70;61.10;;;;;;5052994;28;20481;-74
2021/06/02 10:59:45;;;;;;;3.53;2.73;;;27.70;60.50;;;;;;5046564;28;20517;-74
2021/06/02 11:02:16;;;;;;;3.10;2.90;;;27.80;60.70;;;;;;5072135;28;20216;-74
2021/06/02 11:04:42;;;;;;;5.28;2.80;;;27.90;59.50;;;;;;5057931;28;20559;-74
2021/06/02 11:07:17;;;;;;;2.13;2.03;;;28.10;58.90;;;;;;5045578;28;20579;-74
2021/06/02 11:09:53;;;;;;;4.53;2.95;;;28.20;58.80;;;;;;5028836;28;20235;-74
2021/06/02 11:12:19;;;;;;;3.10;2.67;;;28.20;58.60;;;;;;5010651;28;20213;-75
2021/06/02 11:14:45;;;;;;;2.65;2.45;;;28.40;57.90;;;;;;5027140;28;20704;-74
2021/06/02 11:17:13;;;;;;;4.38;2.90;;;28.40;57.70;;;;;;5010567;28;20661;-74
2021/06/02 11:19:53;;;;;;;3.13;2.83;;;28.50;57.30;;;;;;5027499;28;20225;-74
2021/06/02 11:22:27;;;;;;;2.83;2.63;;;28.50;57.50;;;;;;5044192;28;20227;-74
2021/06/02 11:24:54;;;;;;;2.50;2.30;;;28.60;56.90;;;;;;5011835;28;20263;-74
2021/06/02 11:27:19;;;;;;;2.78;2.58;;;28.70;56.10;;;;;;5044570;28;20583;-74
2021/06/02 11:30:09;;;;;;;3.10;2.78;;;28.70;56.90;;;;;;5012443;28;20707;-74
2021/06/02 11:32:47;;;;;;;4.82;2.50;;;28.50;57.30;;;;;;5027372;28;20243;-74
2021/06/02 11:35:15;;;;;;;2.30;2.20;;;28.50;57.10;;;;;;4994324;28;20228;-74
2021/06/02 11:37:41;;;;;;;3.10;2.90;;;28.50;57.00;;;;;;5011032;28;20331;-74
2021/06/02 11:40:14;;;;;;;3.10;2.65;;;28.50;57.40;;;;;;5012699;28;20227;-74
2021/06/02 11:42:43;;;;;;;2.83;2.63;;;28.50;57.00;;;;;;5010975;28;20216;-74
2021/06/02 11:45:17;;;;;;;4.25;3.88;;;28.50;56.50;;;;;;4990947;28;20229;-74
2021/06/02 11:47:56;;;;;;;3.58;2.90;;;28.40;56.90;;;;;;5058077;28;20228;-74
2021/06/02 11:50:25;;;;;;;2.88;2.67;;;28.40;56.70;;;;;;5041624;28;20227;-74
2021/06/02 11:52:55;;;;;;;3.08;2.88;;;28.50;57.60;;;;;;5062263;28;20271;-74
2021/06/02 11:55:22;;;;;;;2.58;2.40;;;28.70;55.50;;;;;;5039404;28;20752;-74
2021/06/02 11:57:51;;;;;;;2.53;2.33;;;28.80;56.30;;;;;;5027118;28;20231;-74
2021/06/02 12:00:19;;;;;;;3.50;3.08;;;28.80;55.90;;;;;;5029457;28;20215;-74
2021/06/02 12:02:51;;;;;;;2.65;2.45;;;28.90;55.80;;;;;;5036210;28;20263;-74
2021/06/02 12:05:25;;;;;;;4.68;2.75;;;29.00;55.90;;;;;;5024536;28;20236;-74
2021/06/02 12:08:15;;;;;;;3.10;2.78;;;29.10;55.10;;;;;;5006491;28;20591;-74
2021/06/02 12:10:42;;;;;;;2.92;2.67;;;29.10;56.60;;;;;;5005206;28;20721;-74
2021/06/02 12:13:20;;;;;;;3.47;2.70;;;29.10;55.60;;;;;;5029643;28;20219;-74
2021/06/02 12:15:47;;;;;;;3.00;2.75;;;29.20;54.60;;;;;;5010975;28;20220;-75
2021/06/02 12:18:30;;;;;;;3.00;2.75;;;29.10;54.70;;;;;;5043986;28;20224;-74
2021/06/02 12:21:07;;;;;;;2.55;2.35;;;29.20;55.30;;;;;;5038607;28;20227;-74
2021/06/02 12:23:32;;;;;;;3.35;2.40;;;29.10;54.30;;;;;;5030355;28;20224;-74
2021/06/02 12:25:58;;;;;;;2.47;2.38;;;29.10;54.60;;;;;;5060318;28;20228;-74
2021/06/02 12:28:24;;;;;;;2.88;2.65;;;29.10;55.60;;;;;;5044816;28;20228;-74
2021/06/02 12:30:50;;;;;;;2.58;2.38;;;29.20;55.30;;;;;;5049523;28;20224;-74
2021/06/02 12:33:15;;;;;;;2.78;2.53;;;29.10;54.20;;;;;;5047931;28;20695;-74
2021/06/02 12:35:43;;;;;;;2.40;2.30;;;29.10;54.20;;;;;;5022451;28;20235;-74
2021/06/02 12:38:14;;;;;;;2.72;2.53;;;29.10;54.20;;;;;;5043249;28;20220;-74
2021/06/02 12:40:43;;;;;;;3.17;2.95;;;29.10;53.60;;;;;;4988267;28;20224;-74
2021/06/02 12:43:11;;;;;;;2.72;2.53;;;29.20;53.60;;;;;;5034406;28;20212;-74
2021/06/02 12:45:37;;;;;;;2.85;2.53;;;29.30;53.20;;;;;;5031966;28;20243;-75
2021/06/02 12:48:40;;;;;;;3.25;2.17;;;29.50;54.80;;;;;;5017937;28;20236;-74
2021/06/02 12:51:09;;;;;;;2.47;2.33;;;29.60;53.40;;;;;;5050758;28;20282;-74
2021/06/02 12:53:46;;;;;;;2.92;2.33;;;29.70;53.20;;;;;;5057592;28;20227;-74
2021/06/02 12:56:13;;;;;;;3.05;2.60;;;29.70;52.80;;;;;;5035837;28;20215;-74
2021/06/02 12:58:39;;;;;;;3.05;2.85;;;29.70;53.30;;;;;;4992191;28;20216;-71
2021/06/02 13:01:07;;;;;;;6.00;2.83;;;29.70;54.10;;;;;;5059925;28;20568;-71
2021/06/02 13:03:36;;;;;;;5.82;3.13;;;29.60;52.50;;;;;;5015308;28;20218;-71
2021/06/02 13:06:02;;;;;;;2.55;2.35;;;29.50;52.50;;;;;;5051279;28;20217;-72
2021/06/02 13:08:41;;;;;;;2.58;2.38;;;29.50;53.30;;;;;;5000751;28;20233;-71
2021/06/02 13:11:09;;;;;;;3.13;2.33;;;29.60;52.40;;;;;;5026193;28;20296;-71
2021/06/02 13:13:34;;;;;;;2.33;2.22;;;29.80;53.00;;;;;;5050120;28;20220;-72
2021/06/02 13:16:00;;;;;;;2.67;2.47;;;29.80;53.40;;;;;;5045867;28;20306;-72
2021/06/02 13:18:28;;;;;;;2.20;2.10;;;29.90;53.70;;;;;;5021838;28;20244;-72
2021/06/02 13:20:56;;;;;;;2.70;2.50;;;29.90;53.10;;;;;;5057916;28;20215;-71
2021/06/02 13:23:26;;;;;;;2.60;2.40;;;29.80;53.30;;;;;;5017241;28;20660;-72
2021/06/02 13:26:05;;;;;;;2.90;2.70;;;29.90;53.70;;;;;;5019054;28;20299;-72
2021/06/02 13:28:33;;;;;;;2.47;2.28;;;29.70;51.90;;;;;;5021703;28;20237;-72
2021/06/02 13:31:02;;;;;;;2.97;2.55;;;29.70;51.00;;;;;;5023405;28;20220;-72